UKCW/VSG METAR and TAF weather

Enter ICAO airport designator
Station Type Date Time Source
UKCW METAR 2014/06/08 01:00 UTC NOAA

UKCW 080100Z 00000MPS CAVOK 20/08 Q1015 0909//70 NOSIG


Station Type Date Time Source
UKCW Decoded METAR 2014/06/08 01:00 UTC NOAA

Station name not available
Jun 07, 2014 - 09:00 PM EDT / 2014.06.08 0100 UTC
Wind: Calm:0
Visibility: greater than 7 mile(s):0
Temperature: 68 F (20 C)
Dew Point: 46 F (8 C)
Relative Humidity: 45%
Pressure (altimeter): 29.97 in. Hg (1015 hPa)
ob: UKCW 080100Z 00000MPS CAVOK 20/08 Q1015 0909//70 NOSIG
cycle: 1

Station Type Date Time Source
UKCW TAF 2013/07/04 15:33 UTC NOAA

TAF
AMD TAF
AMD UKCW 041526Z 0415/0524 04007MPS 9999 BKN030CB
TEMPO 0415/0421 06007G15MPS 1000 TSRAGR SCT005 BKN015CB TX30/0415Z TN18/0424Z


Example: see airport list